Time;durP1;ratioP1;P1;durP2;ratioP2;P2;SDS_P1;SDS_P2;PMS_P1;PMS_P2;Temp;Humidity;BMP_temperature;BMP_pressure;BME280_temperature;BME280_humidity;BME280_pressure;Samples;Min_cycle;Max_cycle;Signal;HPM_P1;HPM_P2
2024/01/31 05:02:07;;;;;;;3.40;2.73;;;7.80;97.30;;;;;;5372289;23;20688;-88
2024/01/31 05:04:33;;;;;;;1.47;1.17;;;7.70;97.30;;;;;;5048375;28;20429;-87
2024/01/31 05:06:58;;;;;;;1.93;1.50;;;7.70;97.30;;;;;;5045762;28;20419;-87
2024/01/31 05:09:24;;;;;;;1.17;1.07;;;7.70;97.30;;;;;;5028383;28;20419;-87
2024/01/31 05:11:49;;;;;;;1.43;1.20;;;7.70;97.30;;;;;;5025988;28;20232;-88
2024/01/31 05:16:42;;;;;;;1.00;0.90;;;7.60;97.30;;;;;;5051698;22;20869;-70
2024/01/31 05:19:11;;;;;;;1.37;1.27;;;7.60;97.30;;;;;;5019585;28;20194;-70
2024/01/31 05:21:46;;;;;;;2.23;1.93;;;7.50;97.30;;;;;;5025732;28;20500;-71
2024/01/31 05:24:13;;;;;;;1.00;0.90;;;7.50;97.30;;;;;;5048829;28;20422;-70
2024/01/31 05:26:48;;;;;;;0.90;0.80;;;7.50;97.30;;;;;;5041011;28;20447;-71
2024/01/31 05:29:15;;;;;;;1.10;1.00;;;7.40;97.30;;;;;;5040507;28;20453;-69
2024/01/31 05:31:40;;;;;;;1.00;0.90;;;7.40;97.30;;;;;;5047606;28;20466;-70
2024/01/31 05:34:06;;;;;;;1.33;1.10;;;7.40;97.30;;;;;;5029672;28;20489;-70
2024/01/31 05:36:32;;;;;;;3.00;1.73;;;7.30;97.30;;;;;;5030359;28;20202;-71
2024/01/31 05:38:57;;;;;;;2.70;2.50;;;7.30;97.30;;;;;;5028113;28;20180;-71
2024/01/31 05:41:23;;;;;;;0.90;0.80;;;7.30;97.30;;;;;;5029988;28;20512;-71
2024/01/31 05:43:49;;;;;;;1.00;0.90;;;7.30;97.30;;;;;;5030542;28;20360;-70
2024/01/31 05:46:18;;;;;;;1.00;0.90;;;7.30;97.30;;;;;;5048324;28;20267;-70
2024/01/31 05:48:46;;;;;;;1.23;1.13;;;7.30;97.30;;;;;;5030196;28;20278;-70
2024/01/31 05:51:11;;;;;;;0.90;0.80;;;7.30;97.30;;;;;;5039579;28;20537;-69
2024/01/31 05:53:37;;;;;;;1.00;0.90;;;7.20;97.30;;;;;;5030325;28;21077;-68
2024/01/31 05:56:03;;;;;;;1.10;0.83;;;7.20;97.30;;;;;;5047745;28;20545;-70
2024/01/31 05:58:29;;;;;;;1.27;1.17;;;7.10;97.30;;;;;;5030199;28;20183;-69
2024/01/31 06:00:55;;;;;;;1.77;1.57;;;7.10;97.30;;;;;;5029656;28;20529;-69
2024/01/31 06:03:22;;;;;;;1.10;1.10;;;7.10;97.30;;;;;;5030027;28;20521;-69
2024/01/31 06:05:48;;;;;;;1.00;0.90;;;7.00;97.30;;;;;;5030126;28;20187;-69
2024/01/31 06:08:14;;;;;;;1.53;1.00;;;7.00;97.30;;;;;;5030204;28;20418;-70
2024/01/31 06:10:39;;;;;;;1.93;1.10;;;7.00;97.30;;;;;;5029921;28;20609;-70
2024/01/31 06:13:05;;;;;;;0.90;0.80;;;7.00;97.30;;;;;;5020949;28;20195;-73
2024/01/31 06:15:30;;;;;;;0.90;0.80;;;6.90;97.30;;;;;;5029688;28;20224;-71
2024/01/31 06:17:56;;;;;;;1.00;0.90;;;6.90;97.30;;;;;;5047467;28;20180;-72
2024/01/31 06:20:21;;;;;;;1.20;1.10;;;6.90;97.30;;;;;;5021906;28;20325;-71
2024/01/31 06:22:47;;;;;;;0.97;0.87;;;6.90;97.30;;;;;;5029815;28;20266;-70
2024/01/31 06:25:12;;;;;;;0.90;0.80;;;6.90;97.30;;;;;;5029622;28;20183;-70
2024/01/31 06:27:38;;;;;;;2.03;1.90;;;6.90;97.30;;;;;;5029544;28;20183;-70
2024/01/31 06:30:06;;;;;;;0.90;0.80;;;6.90;97.30;;;;;;5031236;28;20183;-71
2024/01/31 06:32:34;;;;;;;1.00;0.90;;;6.80;97.30;;;;;;5035565;28;20585;-71
2024/01/31 06:35:00;;;;;;;1.10;1.00;;;6.80;97.30;;;;;;5029851;28;20979;-70
2024/01/31 06:37:26;;;;;;;0.80;0.70;;;6.80;97.30;;;;;;5055706;28;20469;-71
2024/01/31 06:39:52;;;;;;;1.03;0.93;;;6.80;97.30;;;;;;5022218;28;20208;-71
2024/01/31 06:42:18;;;;;;;0.90;0.80;;;6.80;97.30;;;;;;5038695;28;20473;-71
2024/01/31 06:44:44;;;;;;;0.90;0.80;;;6.80;97.30;;;;;;5021520;28;20199;-71
2024/01/31 06:47:09;;;;;;;1.20;1.10;;;6.80;97.30;;;;;;5033362;28;20440;-71
2024/01/31 06:49:36;;;;;;;1.77;1.33;;;6.80;97.30;;;;;;5045846;28;20188;-71
2024/01/31 06:52:02;;;;;;;1.00;0.90;;;6.90;97.30;;;;;;5042881;28;20273;-70
2024/01/31 06:54:28;;;;;;;0.90;0.80;;;6.80;97.30;;;;;;5028305;28;20909;-71
2024/01/31 06:56:53;;;;;;;1.53;1.23;;;6.80;97.30;;;;;;5040523;28;20510;-71
2024/01/31 06:59:19;;;;;;;1.63;1.53;;;6.90;97.30;;;;;;5048013;28;20214;-71
2024/01/31 07:01:44;;;;;;;1.00;0.90;;;6.90;97.30;;;;;;5048108;28;20355;-71
2024/01/31 07:04:10;;;;;;;1.03;0.93;;;6.80;97.30;;;;;;5032600;28;20248;-71
2024/01/31 07:06:36;;;;;;;0.90;0.80;;;6.80;97.30;;;;;;5032712;28;20198;-71
2024/01/31 07:09:01;;;;;;;1.00;0.90;;;6.80;97.30;;;;;;5022364;28;20184;-71
2024/01/31 07:11:27;;;;;;;0.90;0.80;;;6.80;97.30;;;;;;5030342;28;20261;-71
2024/01/31 07:13:52;;;;;;;1.10;1.00;;;6.80;97.30;;;;;;5027211;28;20679;-70
2024/01/31 07:16:18;;;;;;;0.90;0.90;;;6.80;97.30;;;;;;5040295;28;20230;-71
2024/01/31 07:18:44;;;;;;;1.10;1.00;;;6.80;97.30;;;;;;5034602;28;20494;-71
2024/01/31 07:21:10;;;;;;;1.07;0.97;;;6.80;97.30;;;;;;5053878;28;20211;-70
2024/01/31 07:23:36;;;;;;;1.10;1.00;;;6.80;97.30;;;;;;5043527;28;20670;-70
2024/01/31 07:26:03;;;;;;;1.10;1.00;;;6.80;97.30;;;;;;5058272;28;20464;-70
2024/01/31 07:28:29;;;;;;;1.03;0.97;;;6.80;97.30;;;;;;5041536;28;20434;-71
2024/01/31 07:30:55;;;;;;;2.10;1.57;;;6.80;97.30;;;;;;5034200;28;20488;-71
2024/01/31 07:33:20;;;;;;;0.80;0.70;;;6.80;97.30;;;;;;5037262;28;20492;-71
2024/01/31 07:35:46;;;;;;;1.20;1.10;;;6.80;97.30;;;;;;5039088;28;20176;-71
2024/01/31 07:38:11;;;;;;;1.10;1.00;;;6.80;97.30;;;;;;5050893;28;20663;-71
2024/01/31 07:40:38;;;;;;;1.20;1.10;;;6.80;97.30;;;;;;5050345;28;20715;-71
2024/01/31 07:43:04;;;;;;;1.60;1.13;;;6.90;97.30;;;;;;5034257;28;20187;-71
2024/01/31 07:45:29;;;;;;;0.83;0.73;;;6.90;97.30;;;;;;5059059;28;20418;-71
2024/01/31 07:47:56;;;;;;;1.00;0.90;;;6.90;97.30;;;;;;5059485;28;20255;-71
2024/01/31 07:50:22;;;;;;;0.90;0.80;;;6.90;97.30;;;;;;5041241;28;20229;-71
2024/01/31 07:52:48;;;;;;;3.17;1.63;;;6.90;97.30;;;;;;5030869;28;20501;-70
2024/01/31 07:55:14;;;;;;;0.97;0.87;;;6.90;97.30;;;;;;5025559;28;20674;-70
2024/01/31 07:57:40;;;;;;;4.30;1.57;;;6.90;97.30;;;;;;5025642;28;20188;-70
2024/01/31 08:00:07;;;;;;;0.90;0.80;;;6.80;97.30;;;;;;5026350;28;20796;-70
2024/01/31 08:02:33;;;;;;;0.90;0.80;;;6.80;97.30;;;;;;5064315;28;20239;-71
2024/01/31 08:04:58;;;;;;;1.27;1.17;;;6.80;97.30;;;;;;5053546;28;20530;-71
2024/01/31 08:07:24;;;;;;;0.90;0.80;;;6.90;97.30;;;;;;5044887;28;20780;-70
2024/01/31 08:09:50;;;;;;;0.80;0.70;;;6.80;97.30;;;;;;5029845;28;20587;-71
2024/01/31 08:12:17;;;;;;;1.37;1.33;;;6.80;97.30;;;;;;5022651;28;20461;-71
2024/01/31 08:14:43;;;;;;;1.20;1.07;;;6.80;97.30;;;;;;5036177;28;20219;-70
2024/01/31 08:17:08;;;;;;;1.20;1.07;;;6.90;97.30;;;;;;5036807;28;20438;-70
2024/01/31 08:19:35;;;;;;;2.10;1.33;;;6.90;97.30;;;;;;5030745;28;20183;-71
2024/01/31 08:22:01;;;;;;;1.83;1.20;;;6.90;97.30;;;;;;5028019;28;20247;-71
2024/01/31 08:24:26;;;;;;;1.17;1.13;;;6.90;97.30;;;;;;5037679;28;20862;-70
2024/01/31 08:26:52;;;;;;;5.03;2.40;;;6.90;97.30;;;;;;5053248;28;20693;-69
2024/01/31 08:29:17;;;;;;;1.27;1.17;;;6.90;97.30;;;;;;5033906;28;20222;-70
2024/01/31 08:31:43;;;;;;;1.43;1.33;;;6.90;97.30;;;;;;5032961;28;20299;-69
2024/01/31 08:34:10;;;;;;;1.00;0.90;;;6.80;97.30;;;;;;5042383;28;20683;-69
2024/01/31 08:36:35;;;;;;;0.83;0.73;;;6.80;97.30;;;;;;5055648;28;20581;-70
2024/01/31 08:39:01;;;;;;;1.40;1.30;;;6.80;97.30;;;;;;5054373;28;20502;-70
2024/01/31 08:41:27;;;;;;;1.00;0.90;;;6.80;97.30;;;;;;5013579;28;20664;-70
2024/01/31 08:43:52;;;;;;;2.23;2.03;;;6.70;97.30;;;;;;5051908;28;20200;-70
2024/01/31 08:46:18;;;;;;;1.57;1.17;;;6.70;97.30;;;;;;5043639;28;20183;-70
2024/01/31 08:48:43;;;;;;;1.67;1.57;;;6.70;97.30;;;;;;5056946;28;20267;-70
2024/01/31 08:51:09;;;;;;;1.27;1.17;;;6.70;97.30;;;;;;5065961;28;20666;-70
2024/01/31 08:53:34;;;;;;;1.23;1.13;;;6.70;97.30;;;;;;5050354;28;20746;-70
2024/01/31 08:56:00;;;;;;;2.40;1.97;;;6.70;97.30;;;;;;5024031;28;20199;-70
2024/01/31 08:58:28;;;;;;;1.27;0.90;;;6.70;97.30;;;;;;5048622;28;20651;-70
2024/01/31 09:00:53;;;;;;;2.43;1.13;;;6.70;97.30;;;;;;5032513;28;20447;-70
2024/01/31 09:03:19;;;;;;;1.50;1.40;;;6.80;97.30;;;;;;5034467;28;20445;-70
2024/01/31 09:05:44;;;;;;;1.17;1.07;;;6.80;97.30;;;;;;5050596;28;20574;-70
2024/01/31 09:08:11;;;;;;;1.47;1.47;;;6.70;97.30;;;;;;5021523;28;20198;-70
2024/01/31 09:10:37;;;;;;;1.00;0.90;;;6.70;97.30;;;;;;5023880;28;20269;-69
2024/01/31 09:13:03;;;;;;;1.40;1.37;;;6.70;97.30;;;;;;5032026;28;20836;-70
2024/01/31 09:15:28;;;;;;;2.37;2.13;;;6.70;97.30;;;;;;5049417;28;20237;-70
2024/01/31 09:17:54;;;;;;;2.40;2.20;;;6.60;97.30;;;;;;5049987;28;20249;-70
2024/01/31 09:20:20;;;;;;;2.73;2.03;;;6.60;97.30;;;;;;5024038;28;20188;-69
2024/01/31 09:22:45;;;;;;;6.83;1.40;;;6.50;97.30;;;;;;5032211;28;20366;-70
2024/01/31 09:25:11;;;;;;;1.40;1.30;;;6.50;97.30;;;;;;5041389;28;20436;-70
2024/01/31 09:27:37;;;;;;;3.87;1.73;;;6.50;97.30;;;;;;5049676;28;20233;-70
2024/01/31 09:30:04;;;;;;;1.53;1.43;;;6.40;97.30;;;;;;5022242;28;20520;-70
2024/01/31 09:32:29;;;;;;;1.63;1.53;;;6.40;97.30;;;;;;5048734;28;20184;-70
2024/01/31 09:34:55;;;;;;;1.00;0.90;;;6.40;97.30;;;;;;5037451;28;20464;-70
2024/01/31 09:37:20;;;;;;;1.00;0.90;;;6.40;97.30;;;;;;5047891;28;20180;-69
2024/01/31 09:39:46;;;;;;;2.80;2.67;;;6.40;97.30;;;;;;5033124;28;20643;-70
2024/01/31 09:42:12;;;;;;;6.53;2.37;;;6.40;97.30;;;;;;5032146;28;20219;-69
2024/01/31 09:44:39;;;;;;;1.60;1.50;;;6.40;97.30;;;;;;5038647;28;20180;-70
2024/01/31 09:47:06;;;;;;;1.73;1.63;;;6.40;97.30;;;;;;5031583;28;20434;-69
2024/01/31 09:49:31;;;;;;;1.30;1.20;;;6.40;97.30;;;;;;5049124;28;20422;-69
2024/01/31 09:52:01;;;;;;;1.77;1.67;;;6.40;97.30;;;;;;5038038;28;20445;-70
2024/01/31 09:54:27;;;;;;;2.13;0.97;;;6.50;97.30;;;;;;5049855;28;20291;-70
2024/01/31 09:56:55;;;;;;;1.97;1.83;;;6.50;97.30;;;;;;5041093;28;20414;-69
2024/01/31 09:59:21;;;;;;;3.27;2.00;;;6.50;97.30;;;;;;5031333;28;20915;-69
2024/01/31 10:01:49;;;;;;;1.57;1.47;;;6.50;97.30;;;;;;5048903;28;20445;-70
2024/01/31 10:04:14;;;;;;;73.87;2.30;;;6.50;97.30;;;;;;5039352;28;20520;-70
2024/01/31 10:06:40;;;;;;;2.87;1.70;;;6.40;97.30;;;;;;5031406;28;20545;-70
2024/01/31 10:09:06;;;;;;;2.40;2.20;;;6.50;97.30;;;;;;5057284;28;20237;-70
2024/01/31 10:11:32;;;;;;;7.47;1.40;;;6.60;97.30;;;;;;5057127;28;20294;-70
2024/01/31 10:13:58;;;;;;;1.20;1.00;;;6.60;97.30;;;;;;5037681;28;20552;-70
2024/01/31 10:16:24;;;;;;;1.63;1.40;;;6.70;97.30;;;;;;5048981;28;20714;-69
2024/01/31 10:18:50;;;;;;;4.87;2.23;;;6.70;97.30;;;;;;5035241;28;20271;-70
2024/01/31 10:21:19;;;;;;;1.93;1.83;;;6.70;97.30;;;;;;5037860;28;20444;-70
2024/01/31 10:24:05;;;;;;;0.90;0.80;;;6.70;97.30;;;;;;5064236;28;20442;-69
2024/01/31 10:26:33;;;;;;;1.00;0.90;;;6.50;97.30;;;;;;5036111;28;20521;-70
2024/01/31 10:29:00;;;;;;;1.20;1.10;;;6.50;97.30;;;;;;5059205;28;20453;-70
2024/01/31 10:31:27;;;;;;;3.47;2.03;;;6.50;97.30;;;;;;5048175;28;20442;-70
2024/01/31 10:33:54;;;;;;;0.80;0.70;;;6.40;97.30;;;;;;5037358;28;20501;-70
2024/01/31 10:36:21;;;;;;;1.13;1.03;;;6.40;97.30;;;;;;5056134;28;20510;-70
2024/01/31 10:38:46;;;;;;;1.20;1.10;;;6.40;97.30;;;;;;5032708;28;20427;-70
2024/01/31 10:41:15;;;;;;;1.47;1.20;;;6.40;97.30;;;;;;5053729;28;21018;-70
2024/01/31 10:43:43;;;;;;;1.00;0.90;;;6.40;97.30;;;;;;5028589;28;20188;-70
2024/01/31 10:46:08;;;;;;;0.90;0.80;;;6.40;97.30;;;;;;5031491;28;20645;-68
2024/01/31 10:48:34;;;;;;;0.90;0.80;;;6.40;97.30;;;;;;5037027;28;20456;-69
2024/01/31 10:51:01;;;;;;;1.00;0.90;;;6.40;97.30;;;;;;5035315;28;20211;-70
2024/01/31 10:53:29;;;;;;;1.10;1.00;;;6.40;97.30;;;;;;5048557;28;20203;-69
2024/01/31 10:55:56;;;;;;;1.00;0.90;;;6.50;97.30;;;;;;5038765;28;20780;-70
2024/01/31 10:58:22;;;;;;;1.00;0.90;;;6.50;97.30;;;;;;5054697;28;20425;-70
2024/01/31 11:00:48;;;;;;;1.20;0.90;;;6.50;97.30;;;;;;5060800;28;20433;-70
2024/01/31 11:03:17;;;;;;;1.27;1.20;;;6.40;97.30;;;;;;5005997;28;20501;-70
2024/01/31 11:05:43;;;;;;;1.17;1.07;;;6.40;97.30;;;;;;5030524;28;20434;-70
2024/01/31 11:08:19;;;;;;;1.13;1.03;;;6.40;97.30;;;;;;5038317;28;20432;-70
2024/01/31 11:10:45;;;;;;;0.90;0.80;;;6.40;97.30;;;;;;5023079;28;20268;-70
2024/01/31 11:13:10;;;;;;;1.00;0.90;;;6.40;97.30;;;;;;5040576;28;20475;-70
2024/01/31 11:15:36;;;;;;;1.57;1.47;;;6.50;97.30;;;;;;5042662;23;20235;-88
2024/01/31 11:18:08;;;;;;;1.00;0.90;;;6.40;97.30;;;;;;5063233;28;20421;-86
2024/01/31 11:20:38;;;;;;;1.30;1.20;;;6.40;97.30;;;;;;5044131;28;20448;-88
2024/01/31 11:23:03;;;;;;;1.17;1.17;;;6.40;97.30;;;;;;5037780;28;20785;-88
2024/01/31 11:25:34;;;;;;;1.00;0.90;;;6.40;97.30;;;;;;5050545;28;20539;-85
2024/01/31 11:28:00;;;;;;;1.10;1.00;;;6.40;97.30;;;;;;5068446;22;20231;-74
2024/01/31 11:30:26;;;;;;;1.30;1.20;;;6.40;97.30;;;;;;5021855;28;20472;-77
2024/01/31 11:32:52;;;;;;;4.70;1.90;;;6.50;97.30;;;;;;5030632;28;20833;-74
2024/01/31 11:35:17;;;;;;;0.90;0.80;;;6.50;97.30;;;;;;5047961;28;20418;-74
2024/01/31 11:37:43;;;;;;;1.87;1.77;;;6.50;97.30;;;;;;5056502;28;20207;-75
2024/01/31 11:40:11;;;;;;;1.10;1.00;;;6.60;97.30;;;;;;5055791;28;20175;-74
2024/01/31 11:42:36;;;;;;;1.20;1.10;;;6.60;97.30;;;;;;5031116;28;20186;-75
2024/01/31 11:45:03;;;;;;;1.87;1.77;;;6.70;97.30;;;;;;5029995;28;20902;-73
2024/01/31 11:47:28;;;;;;;1.00;0.90;;;6.70;97.30;;;;;;5030107;28;20180;-74
2024/01/31 11:50:01;;;;;;;1.37;1.27;;;6.70;97.30;;;;;;5047867;28;20426;-76
2024/01/31 11:52:27;;;;;;;0.90;0.80;;;6.80;97.30;;;;;;5061023;28;20596;-76
2024/01/31 11:54:52;;;;;;;1.00;0.90;;;6.80;97.30;;;;;;5029750;28;20468;-73
2024/01/31 11:57:18;;;;;;;1.10;1.00;;;6.80;97.30;;;;;;5030110;28;20184;-74
2024/01/31 11:59:43;;;;;;;0.90;0.80;;;6.80;97.30;;;;;;5030007;28;20184;-73
2024/01/31 12:02:09;;;;;;;4.67;1.40;;;6.90;97.30;;;;;;5048940;28;20202;-77
2024/01/31 12:04:35;;;;;;;1.00;0.90;;;6.90;97.30;;;;;;5051320;28;20184;-75
2024/01/31 12:07:07;;;;;;;1.20;1.10;;;6.90;97.30;;;;;;5025383;28;20188;-72
2024/01/31 12:09:36;;;;;;;2.80;1.50;;;7.00;97.30;;;;;;5049754;28;20565;-69
2024/01/31 12:12:02;;;;;;;4.53;1.23;;;6.90;97.30;;;;;;5049762;28;20477;-74
2024/01/31 12:14:27;;;;;;;0.97;0.87;;;7.00;97.30;;;;;;5032357;28;20497;-75
2024/01/31 12:16:53;;;;;;;2.10;1.00;;;7.10;97.30;;;;;;5032978;28;20218;-75
2024/01/31 12:19:19;;;;;;;1.00;0.90;;;7.10;97.30;;;;;;5051258;28;20221;-73
2024/01/31 12:21:44;;;;;;;3.37;1.90;;;7.10;97.30;;;;;;5033198;28;20203;-74
2024/01/31 12:24:10;;;;;;;1.00;0.90;;;7.10;97.30;;;;;;5033149;28;20801;-75
2024/01/31 12:26:35;;;;;;;1.00;0.90;;;7.10;97.30;;;;;;5050614;28;20241;-75
2024/01/31 12:29:01;;;;;;;1.73;1.63;;;7.10;97.30;;;;;;5017333;28;20305;-74
2024/01/31 12:31:26;;;;;;;1.00;0.90;;;7.10;97.30;;;;;;5030113;28;20220;-73
2024/01/31 12:33:53;;;;;;;1.40;1.10;;;7.10;97.30;;;;;;5009920;28;20668;-74
2024/01/31 12:36:19;;;;;;;1.00;0.90;;;7.00;97.30;;;;;;5012724;28;20188;-75
2024/01/31 12:38:45;;;;;;;0.93;0.90;;;7.10;97.30;;;;;;5012204;28;20423;-73
2024/01/31 12:41:10;;;;;;;1.70;1.17;;;7.30;97.30;;;;;;5030335;28;20492;-75
2024/01/31 12:43:36;;;;;;;0.90;0.80;;;7.30;97.30;;;;;;5012160;28;20540;-74
2024/01/31 12:46:02;;;;;;;1.00;0.90;;;7.20;97.30;;;;;;5030857;28;20195;-74
2024/01/31 12:48:28;;;;;;;0.90;0.80;;;7.30;97.30;;;;;;5010907;28;20285;-73
2024/01/31 12:50:55;;;;;;;1.00;0.90;;;7.20;97.30;;;;;;5010112;28;20546;-73
2024/01/31 12:53:21;;;;;;;0.90;0.80;;;7.30;97.30;;;;;;5009974;28;20459;-73
2024/01/31 12:55:47;;;;;;;2.63;1.53;;;7.20;97.30;;;;;;5012363;28;20826;-75
2024/01/31 12:58:12;;;;;;;0.90;0.80;;;7.20;97.30;;;;;;5030811;28;20180;-75
2024/01/31 13:00:38;;;;;;;0.90;0.80;;;7.20;97.30;;;;;;5012320;28;20542;-76
2024/01/31 13:03:05;;;;;;;0.97;0.87;;;7.20;97.30;;;;;;5019102;28;20182;-75
2024/01/31 13:05:30;;;;;;;1.00;0.90;;;7.30;97.30;;;;;;5012098;28;20444;-76
2024/01/31 13:07:56;;;;;;;0.90;0.80;;;7.20;97.30;;;;;;5009709;28;20948;-73
2024/01/31 13:10:21;;;;;;;0.90;0.80;;;7.20;97.30;;;;;;5009202;28;20212;-76
2024/01/31 13:12:47;;;;;;;0.97;0.87;;;7.20;97.30;;;;;;5012630;28;20180;-73
2024/01/31 13:15:13;;;;;;;1.53;1.43;;;7.10;97.30;;;;;;5008332;28;20208;-77
2024/01/31 13:17:38;;;;;;;1.07;0.97;;;7.10;97.30;;;;;;5028910;28;20178;-78
2024/01/31 13:20:05;;;;;;;1.47;1.37;;;7.10;97.30;;;;;;5013018;28;20695;-74
2024/01/31 13:22:32;;;;;;;1.00;0.90;;;7.00;97.30;;;;;;5011784;28;20226;-78
2024/01/31 13:24:57;;;;;;;1.57;1.10;;;7.00;97.30;;;;;;5009372;28;20436;-73
2024/01/31 13:27:23;;;;;;;1.20;1.10;;;7.00;97.30;;;;;;5028615;28;20513;-75
2024/01/31 13:29:48;;;;;;;0.90;0.80;;;7.00;97.30;;;;;;5023340;28;20690;-78
2024/01/31 13:32:14;;;;;;;0.90;0.80;;;7.00;97.30;;;;;;5043969;28;20200;-77
2024/01/31 13:34:41;;;;;;;1.10;1.00;;;7.00;97.30;;;;;;5013962;28;20211;-76
2024/01/31 13:37:07;;;;;;;0.90;0.80;;;7.00;97.30;;;;;;5049488;28;20176;-77
2024/01/31 13:39:32;;;;;;;1.00;0.90;;;7.10;97.30;;;;;;5032105;28;20423;-74
2024/01/31 13:42:01;;;;;;;1.17;0.93;;;7.10;97.30;;;;;;5031990;28;20192;-76
2024/01/31 13:44:27;;;;;;;0.97;0.87;;;7.10;97.30;;;;;;5050360;28;20186;-76
2024/01/31 13:46:52;;;;;;;1.00;0.90;;;7.10;97.30;;;;;;5032764;28;20426;-75
2024/01/31 13:49:20;;;;;;;1.17;0.90;;;7.20;97.30;;;;;;5040208;28;20582;-76
2024/01/31 13:51:46;;;;;;;0.90;0.80;;;7.20;97.30;;;;;;5050456;28;20290;-74
2024/01/31 13:54:11;;;;;;;0.90;0.80;;;7.10;97.30;;;;;;5032263;28;20557;-76
2024/01/31 13:56:37;;;;;;;1.20;1.10;;;7.10;97.30;;;;;;5022846;28;20200;-77
2024/01/31 13:59:02;;;;;;;1.40;1.30;;;7.10;97.30;;;;;;5030468;28;20202;-77
2024/01/31 14:01:28;;;;;;;1.13;1.10;;;7.10;97.30;;;;;;5052269;28;20218;-77
2024/01/31 14:03:54;;;;;;;1.23;1.20;;;7.10;97.30;;;;;;5053468;28;20694;-76
2024/01/31 14:06:19;;;;;;;1.00;0.90;;;7.00;97.30;;;;;;5029388;28;20546;-78
2024/01/31 14:08:45;;;;;;;1.00;0.90;;;7.00;97.30;;;;;;5027379;28;20442;-75
2024/01/31 14:11:17;;;;;;;1.10;1.00;;;6.90;97.30;;;;;;5045562;28;20208;-77
2024/01/31 14:13:43;;;;;;;0.90;0.80;;;6.90;97.30;;;;;;5044168;28;20250;-77
2024/01/31 14:16:13;;;;;;;1.43;1.00;;;6.90;97.30;;;;;;5015457;28;20741;-79
2024/01/31 14:18:42;;;;;;;0.90;0.90;;;6.90;97.30;;;;;;5028034;28;20176;-76
2024/01/31 14:21:08;;;;;;;1.10;1.00;;;6.90;97.30;;;;;;5027883;28;20446;-77
2024/01/31 14:23:34;;;;;;;1.00;0.90;;;6.90;97.30;;;;;;5028358;28;20534;-77
2024/01/31 14:25:59;;;;;;;0.90;0.80;;;6.90;97.30;;;;;;5043887;28;21070;-76
2024/01/31 14:28:26;;;;;;;2.40;1.13;;;6.80;97.30;;;;;;5019578;28;20224;-76
2024/01/31 14:30:51;;;;;;;1.00;0.90;;;6.80;97.30;;;;;;5030442;28;20216;-78
2024/01/31 14:33:17;;;;;;;1.00;0.90;;;6.80;97.30;;;;;;5006839;28;20476;-78
2024/01/31 14:35:43;;;;;;;0.80;0.80;;;6.80;97.30;;;;;;4994719;28;20207;-75
2024/01/31 14:38:08;;;;;;;1.53;1.10;;;6.80;97.30;;;;;;5009192;28;20245;-79
2024/01/31 14:40:34;;;;;;;1.40;1.30;;;6.80;97.30;;;;;;5021996;28;20193;-78
2024/01/31 14:42:59;;;;;;;1.00;0.90;;;6.80;97.30;;;;;;5032172;28;20168;-79
2024/01/31 14:45:25;;;;;;;0.90;0.80;;;6.80;97.30;;;;;;5010198;28;20176;-77
2024/01/31 14:47:50;;;;;;;1.53;1.43;;;6.80;97.30;;;;;;5009760;28;20172;-78
2024/01/31 14:50:16;;;;;;;0.90;0.80;;;6.80;97.30;;;;;;5009390;28;20172;-79
2024/01/31 14:52:41;;;;;;;1.20;1.10;;;6.80;97.30;;;;;;5023752;28;20301;-80
2024/01/31 14:55:08;;;;;;;1.00;0.90;;;6.80;97.30;;;;;;5008218;28;20691;-77
2024/01/31 14:57:33;;;;;;;1.00;0.90;;;6.80;97.30;;;;;;5026051;28;20189;-77
2024/01/31 14:59:59;;;;;;;1.67;1.63;;;6.80;97.30;;;;;;5005938;28;21038;-77
2024/01/31 15:02:25;;;;;;;1.00;0.90;;;6.80;97.30;;;;;;5004299;28;20281;-76
2024/01/31 15:04:50;;;;;;;1.47;1.37;;;6.80;97.30;;;;;;5025429;28;20564;-76
2024/01/31 15:07:16;;;;;;;1.20;1.10;;;6.80;97.30;;;;;;5007532;28;20653;-77
2024/01/31 15:09:41;;;;;;;2.93;1.50;;;6.80;97.30;;;;;;5021838;28;20185;-77
2024/01/31 15:12:07;;;;;;;2.03;1.90;;;6.80;97.30;;;;;;5006052;28;20236;-78
2024/01/31 15:14:32;;;;;;;0.90;0.80;;;6.80;97.30;;;;;;5010862;28;20691;-78
2024/01/31 15:16:58;;;;;;;1.10;1.00;;;6.80;97.30;;;;;;5011153;28;20177;-79
2024/01/31 15:19:23;;;;;;;1.60;1.50;;;6.80;97.30;;;;;;5028979;28;20180;-78
2024/01/31 15:21:49;;;;;;;1.50;1.40;;;6.80;97.30;;;;;;4994831;28;20200;-78
2024/01/31 15:24:14;;;;;;;1.10;1.00;;;6.80;97.30;;;;;;5011353;28;20722;-78
2024/01/31 15:26:40;;;;;;;2.63;1.80;;;6.80;97.30;;;;;;5010637;28;20192;-77
2024/01/31 15:29:05;;;;;;;0.97;0.87;;;6.80;97.30;;;;;;5007436;28;20257;-77
2024/01/31 15:31:32;;;;;;;0.97;0.87;;;6.80;97.30;;;;;;5026300;28;20287;-77
2024/01/31 15:33:57;;;;;;;1.00;0.90;;;6.80;97.30;;;;;;5020267;28;20248;-77
2024/01/31 15:36:23;;;;;;;0.90;0.80;;;6.80;97.30;;;;;;5011055;28;20967;-78
2024/01/31 15:38:49;;;;;;;2.40;1.97;;;6.80;97.30;;;;;;5014124;28;20169;-78
2024/01/31 15:41:16;;;;;;;0.90;0.90;;;6.80;97.30;;;;;;5014441;28;20704;-77
2024/01/31 15:43:43;;;;;;;0.97;0.87;;;6.80;97.30;;;;;;5014383;28;20423;-77
2024/01/31 15:46:09;;;;;;;1.53;1.43;;;6.80;97.30;;;;;;5014859;28;20432;-78
2024/01/31 15:48:34;;;;;;;1.23;1.13;;;6.80;97.30;;;;;;5031441;28;20438;-77
2024/01/31 15:51:01;;;;;;;1.40;1.30;;;6.70;97.30;;;;;;5010041;28;20196;-78
2024/01/31 15:53:27;;;;;;;1.17;1.07;;;6.70;97.30;;;;;;5034283;28;20212;-76
2024/01/31 15:55:52;;;;;;;2.13;1.57;;;6.70;97.30;;;;;;5041451;28;20442;-76
2024/01/31 15:58:18;;;;;;;1.03;0.93;;;6.70;97.30;;;;;;5046170;28;20179;-72
2024/01/31 16:00:43;;;;;;;0.90;0.80;;;6.70;97.30;;;;;;5024724;28;20666;-78
2024/01/31 16:03:09;;;;;;;1.90;1.80;;;6.80;97.30;;;;;;5040288;28;20293;-79
2024/01/31 16:05:34;;;;;;;1.10;1.00;;;6.80;97.30;;;;;;5031049;28;20186;-79
2024/01/31 16:08:00;;;;;;;1.27;1.20;;;6.80;97.30;;;;;;5023851;28;20196;-79
2024/01/31 16:10:28;;;;;;;1.90;1.53;;;6.80;97.30;;;;;;5021266;28;20404;-79
2024/01/31 16:12:55;;;;;;;1.67;1.57;;;6.80;97.30;;;;;;5022659;28;20180;-77
2024/01/31 16:15:20;;;;;;;1.10;1.00;;;6.80;97.30;;;;;;5031943;28;20489;-76
2024/01/31 16:17:46;;;;;;;1.53;1.43;;;6.80;97.30;;;;;;5039537;28;20831;-77
2024/01/31 16:20:13;;;;;;;1.80;1.00;;;6.80;97.30;;;;;;5007850;28;20176;-79
2024/01/31 16:22:39;;;;;;;0.80;0.70;;;6.80;97.30;;;;;;5040355;28;20259;-78
2024/01/31 16:25:06;;;;;;;1.20;1.10;;;6.80;97.30;;;;;;5018296;28;20441;-77
2024/01/31 16:27:33;;;;;;;1.10;1.00;;;6.80;97.30;;;;;;5009249;28;20421;-72
2024/01/31 16:29:58;;;;;;;1.00;0.90;;;6.80;97.30;;;;;;5046312;28;20807;-79
2024/01/31 16:32:24;;;;;;;3.13;1.00;;;6.80;97.30;;;;;;5008594;28;20966;-76
2024/01/31 16:34:49;;;;;;;1.00;0.90;;;6.80;97.30;;;;;;5011244;28;20354;-78
2024/01/31 16:37:15;;;;;;;1.37;1.27;;;6.90;97.30;;;;;;5035669;28;20189;-74
2024/01/31 16:39:44;;;;;;;1.10;1.00;;;6.90;97.30;;;;;;5017464;28;20275;-79
2024/01/31 16:42:11;;;;;;;4.20;1.20;;;6.90;97.30;;;;;;5034929;28;20224;-75
2024/01/31 16:44:41;;;;;;;1.30;1.20;;;6.90;97.30;;;;;;5020671;28;20470;-78
2024/01/31 16:47:06;;;;;;;0.90;0.80;;;6.90;97.30;;;;;;5025600;28;20429;-76
2024/01/31 16:49:32;;;;;;;1.20;1.10;;;6.90;97.30;;;;;;5017463;28;20423;-78
2024/01/31 16:51:57;;;;;;;1.10;1.00;;;6.90;97.30;;;;;;5025168;28;20211;-77
2024/01/31 16:54:24;;;;;;;2.50;1.27;;;6.90;97.30;;;;;;5032023;28;20216;-76
2024/01/31 16:56:50;;;;;;;1.50;1.40;;;6.90;97.30;;;;;;5044398;28;20910;-76
2024/01/31 16:59:15;;;;;;;1.30;1.20;;;6.90;97.30;;;;;;5015524;28;20427;-78
2024/01/31 17:01:44;;;;;;;1.20;1.10;;;6.90;97.30;;;;;;5037687;28;20200;-79
2024/01/31 17:04:10;;;;;;;2.33;2.13;;;6.90;97.30;;;;;;5026293;28;20185;-78
2024/01/31 17:06:39;;;;;;;0.90;0.80;;;6.90;97.30;;;;;;5030490;28;20893;-77
2024/01/31 17:09:05;;;;;;;1.00;0.90;;;6.90;97.30;;;;;;5004541;28;20430;-78
2024/01/31 17:11:32;;;;;;;2.10;1.83;;;6.90;97.30;;;;;;5029796;28;20435;-77
2024/01/31 17:13:57;;;;;;;2.40;1.87;;;6.90;97.30;;;;;;5012144;28;20212;-77
2024/01/31 17:16:23;;;;;;;2.07;1.93;;;7.00;97.30;;;;;;5051395;23;20597;-73
2024/01/31 17:18:48;;;;;;;1.60;1.50;;;7.00;97.30;;;;;;5031322;28;20480;-75
2024/01/31 17:21:15;;;;;;;1.53;1.43;;;7.00;97.30;;;;;;5059601;28;20301;-73
2024/01/31 17:23:41;;;;;;;1.10;1.10;;;7.00;97.30;;;;;;5051580;28;20639;-71
2024/01/31 17:26:06;;;;;;;1.67;1.57;;;7.00;97.30;;;;;;5069697;28;20438;-74
2024/01/31 17:28:32;;;;;;;3.43;1.20;;;7.00;97.30;;;;;;5050545;28;20272;-71
2024/01/31 17:30:57;;;;;;;1.10;1.00;;;7.00;97.30;;;;;;5051673;28;20202;-72
2024/01/31 17:33:23;;;;;;;1.00;0.90;;;7.00;97.30;;;;;;5047116;28;20646;-73
2024/01/31 17:35:48;;;;;;;2.30;1.77;;;7.00;97.30;;;;;;5051413;28;20589;-74
2024/01/31 17:38:14;;;;;;;1.30;1.20;;;6.90;97.30;;;;;;5047210;28;20191;-73
2024/01/31 17:40:42;;;;;;;1.10;1.10;;;7.00;97.30;;;;;;5047254;28;20329;-73
2024/01/31 17:43:07;;;;;;;2.23;1.63;;;7.00;97.30;;;;;;5051918;28;20175;-72
2024/01/31 17:45:33;;;;;;;2.10;1.90;;;7.00;97.30;;;;;;5051167;28;20441;-73
2024/01/31 17:47:59;;;;;;;1.53;1.43;;;7.00;97.30;;;;;;5065254;28;20183;-72
2024/01/31 17:50:24;;;;;;;1.77;1.13;;;7.00;97.30;;;;;;5042782;28;20602;-72
2024/01/31 17:52:50;;;;;;;1.97;1.33;;;7.00;97.30;;;;;;5051237;28;20190;-73
2024/01/31 17:55:19;;;;;;;1.13;1.03;;;7.00;97.30;;;;;;5046800;28;20766;-73